Time;durP1;ratioP1;P1;durP2;ratioP2;P2;SDS_P1;SDS_P2;PMS_P1;PMS_P2;Temp;Humidity;BMP_temperature;BMP_pressure;BME280_temperature;BME280_humidity;BME280_pressure;Samples;Min_cycle;Max_cycle;Signal;HPM_P1;HPM_P2
2023/03/25 06:47:52;;;;;;;13.43;5.10;;;;;;;9.49;77.41;101178.03;12882791;22;96966;-80
2023/03/25 06:53:06;;;;;;;;;;;;;;;;;;;;;
2023/03/25 06:58:10;;;;;;;12.07;4.47;;;;;;;9.47;77.33;101173.69;12862933;22;97392;-81
2023/03/25 07:03:15;;;;;;;10.77;4.03;;;;;;;9.54;77.00;101175.31;12863876;22;96486;-80
2023/03/25 07:08:22;;;;;;;11.30;4.50;;;;;;;9.58;77.34;101174.34;12864025;22;96632;-81
2023/03/25 07:13:33;;;;;;;11.95;4.45;;;;;;;9.53;77.67;101179.72;12863078;22;96495;-80
2023/03/25 07:18:38;;;;;;;12.80;4.70;;;;;;;9.66;77.45;101175.06;12864086;22;96510;-81
2023/03/25 07:23:58;;;;;;;11.52;3.88;;;;;;;9.68;77.15;101157.50;12864320;22;96462;-80
2023/03/25 07:29:03;;;;;;;8.85;3.83;;;;;;;9.95;76.40;101157.75;12864471;22;96516;-81
2023/03/25 07:34:21;;;;;;;;;;;;;;;10.03;76.21;101154.94;12865264;22;97000;-80
2023/03/25 07:39:25;;;;;;;9.60;3.45;;;;;;;10.37;75.82;101147.13;12862748;22;97447;-80
2023/03/25 07:44:30;;;;;;;11.93;3.73;;;;;;;10.63;74.48;101142.94;12864064;22;96690;-80
2023/03/25 07:49:39;;;;;;;13.60;3.40;;;;;;;11.58;72.58;101157.91;12910104;22;96795;-80
2023/03/25 07:54:46;;;;;;;7.97;3.08;;;;;;;12.94;69.37;101147.31;12928182;22;97273;-81
2023/03/25 08:00:25;;;;;;;;;;;;;;;;;;;;;
2023/03/25 08:05:39;;;;;;;;;;;;;;;;;;;;;
2023/03/25 08:10:48;;;;;;;8.43;3.08;;;;;;;16.61;59.05;101137.69;12926389;22;97192;-83
2023/03/25 08:15:52;;;;;;;9.57;3.00;;;;;;;17.38;57.87;101147.78;12928166;22;96883;-83
2023/03/25 08:21:03;;;;;;;6.70;3.00;;;;;;;18.70;53.97;101147.44;12927348;22;96687;-83
2023/03/25 08:26:10;;;;;;;7.93;2.67;;;;;;;18.96;51.99;101148.56;12927542;22;96576;-81
2023/03/25 08:31:21;;;;;;;7.95;3.50;;;;;;;19.36;49.61;101150.53;12927529;22;96636;-81
2023/03/25 08:36:26;;;;;;;9.57;3.38;;;;;;;19.18;48.27;101154.34;12927250;22;96658;-82
2023/03/25 09:27:34;;;;;;;10.23;4.05;;;;;;;20.61;43.07;101179.00;12801930;22;96723;-81
2023/03/25 09:32:41;;;;;;;9.30;3.55;;;;;;;20.24;43.15;101181.38;12800731;22;96677;-82
2023/03/25 09:38:01;;;;;;;11.35;3.50;;;;;;;20.42;43.17;101170.50;12802920;22;96479;-82
2023/03/25 09:43:24;;;;;;;7.20;3.30;;;;;;;21.17;41.19;101176.94;12801891;22;96594;-81
2023/03/25 09:48:46;;;;;;;6.07;3.10;;;;;;;20.70;42.00;101183.75;12801889;22;97080;-81
2023/03/25 09:54:00;;;;;;;7.82;3.38;;;;;;;20.99;42.17;101183.53;12799516;22;96989;-81
2023/03/25 09:59:15;;;;;;;9.50;3.80;;;;;;;21.86;40.81;101189.03;12790852;22;96865;-82
2023/03/25 10:04:53;;;;;;;9.65;3.85;;;;;;;20.99;41.77;101188.88;12801314;22;96676;-82
2023/03/25 10:10:09;;;;;;;9.40;4.05;;;;;;;21.56;41.55;101186.72;12798114;22;96721;-81
2023/03/25 10:15:30;;;;;;;11.82;4.28;;;;;;;21.54;41.48;101174.41;12801515;22;96570;-82
2023/03/25 10:20:47;;;;;;;11.18;4.32;;;;;;;22.45;40.17;101170.34;12801106;22;96574;-82
2023/03/25 10:25:56;;;;;;;7.90;3.97;;;;;;;23.21;38.19;101161.88;12800266;22;96789;-81
2023/03/25 10:31:06;;;;;;;9.68;4.18;;;;;;;23.66;36.37;101158.31;12802179;22;96701;-81
2023/03/25 10:36:19;;;;;;;8.95;4.18;;;;;;;24.17;35.74;101147.91;12864394;22;96661;-82
2023/03/25 10:41:30;;;;;;;8.52;4.38;;;;;;;23.91;35.49;101150.00;12864663;22;96631;-82
2023/03/25 10:46:46;;;;;;;11.87;5.77;;;;;;;24.48;35.47;101147.94;12863368;22;96644;-82
2023/03/25 10:51:58;;;;;;;9.20;4.47;;;;;;;24.13;35.95;101147.28;12864748;22;96679;-81
2023/03/25 10:57:05;;;;;;;13.50;6.15;;;;;;;23.49;37.17;101139.97;12864473;22;96860;-81
2023/03/25 11:02:24;;;;;;;;;;;;;;;;;;;;;
2023/03/25 14:51:57;;;;;;;8.23;3.50;;;;;;;19.49;45.45;100978.00;12445419;22;98306;-80
2023/03/25 14:57:06;;;;;;;8.63;3.25;;;;;;;19.80;45.67;100967.03;12929998;22;99163;-80
2023/03/25 15:02:30;;;;;;;;;;;;;;;;;;;;;
2023/03/25 15:07:51;;;;;;;7.97;3.15;;;;;;;20.34;45.94;100973.19;12929338;22;97971;-80
2023/03/25 15:13:03;;;;;;;13.75;4.55;;;;;;;20.27;47.98;100969.19;12929955;22;99549;-81
2023/03/25 15:18:29;;;;;;;;;;;;;;;20.16;49.77;100972.59;12930573;22;99155;-80
2023/03/25 15:23:45;;;;;;;13.48;4.30;;;;;;;20.15;49.04;100975.38;12929661;22;99467;-81
2023/03/25 15:29:15;;;;;;;13.15;4.60;;;;;;;20.18;48.92;100975.16;12929497;22;99228;-80
2023/03/25 15:35:02;;;;;;;10.55;3.25;;;;;;;19.51;49.04;100969.91;12929750;22;99288;-80
2023/03/25 15:40:18;;;;;;;11.73;3.45;;;;;;;19.60;49.68;100978.16;12876813;22;98933;-80
2023/03/25 15:45:51;;;;;;;11.88;3.50;;;;;;;19.65;49.00;100978.69;12929392;22;99141;-80
2023/03/25 15:51:20;;;;;;;10.13;3.47;;;;;;;19.24;48.68;100969.81;12929579;22;98886;-80
2023/03/25 15:56:29;;;;;;;11.88;3.80;;;;;;;19.23;49.07;100978.78;12928543;22;99431;-80
2023/03/25 16:01:36;;;;;;;11.63;4.00;;;;;;;19.18;49.13;100989.72;12929181;22;98987;-80
2023/03/25 16:06:45;;;;;;;15.35;4.45;;;;;;;19.07;49.26;100988.72;12929398;22;98964;-80
2023/03/25 16:11:58;;;;;;;10.23;4.47;;;;;;;18.79;49.97;100996.69;12929204;22;99245;-80
2023/03/25 16:17:07;;;;;;;12.97;3.93;;;;;;;18.77;49.24;101001.25;12928547;22;98986;-79
2023/03/25 16:23:04;;;;;;;;;;;;;;;;;;;;;
2023/03/25 18:07:58;;;;;;;9.90;3.08;;;;;;;16.59;65.64;100973.03;12925752;22;97494;-79
2023/03/25 18:13:06;;;;;;;6.97;3.08;;;;;;;16.55;67.04;100983.91;12930750;22;99132;-80
2023/03/25 18:18:15;;;;;;;6.38;3.03;;;;;;;16.35;69.10;100984.91;12930463;22;99129;-80
2023/03/25 18:23:47;;;;;;;8.10;3.13;;;;;;;16.50;68.77;100978.81;12930565;22;98940;-80
2023/03/25 19:09:28;;;;;;;;;;;;;;;;;;;;;
2023/03/25 19:14:33;;;;;;;9.32;4.78;;;;;;;16.26;71.04;100971.22;12800216;22;99038;-80
2023/03/25 19:19:45;;;;;;;9.68;5.40;;;;;;;16.25;70.91;100965.06;12802480;22;98914;-80
2023/03/25 19:25:06;;;;;;;10.07;5.35;;;;;;;16.34;70.78;100961.91;12801780;22;98180;-80
2023/03/25 19:30:20;;;;;;;11.02;5.90;;;;;;;16.36;71.09;100945.91;12802471;22;98903;-79
2023/03/25 20:14:21;;;;;;;14.88;7.68;;;;;;;16.29;72.37;100948.00;12859805;22;96916;-80
2023/03/25 20:19:34;;;;;;;;;;;;;;;;;;;;;
2023/03/25 20:24:45;;;;;;;9.45;5.57;;;;;;;16.30;71.43;100955.06;12867656;22;98314;-81
2023/03/25 20:29:49;;;;;;;11.55;5.70;;;;;;;16.13;72.57;100948.91;12867806;22;98733;-80
2023/03/25 20:34:53;;;;;;;11.27;4.60;;;;;;;16.23;72.72;100948.34;12867601;22;98915;-80
2023/03/25 20:40:09;;;;;;;;;;;;;;;;;;;;;
2023/03/25 21:20:25;;;;;;;;;;;;;;;;;;;;;
2023/03/25 21:25:45;;;;;;;;;;;;;;;;;;;;;
2023/03/25 21:31:15;;;;;;;;;;;;;;;;;;;;;
2023/03/25 22:25:11;;;;;;;6.70;2.33;;;;;;;16.49;75.72;100952.31;12842999;22;97164;-79
2023/03/25 22:30:16;;;;;;;6.70;2.70;;;;;;;16.34;76.60;100955.75;12864179;22;99033;-81
2023/03/25 22:35:20;;;;;;;8.80;2.50;;;;;;;16.20;77.76;100953.81;12865406;22;99053;-80
2023/03/25 22:40:27;;;;;;;5.78;2.30;;;;;;;16.19;78.15;100959.19;12864116;22;99240;-80
2023/03/25 22:45:30;;;;;;;6.75;2.00;;;;;;;16.14;78.62;100956.78;12864147;22;98997;-80
2023/03/25 22:50:34;;;;;;;4.30;2.05;;;;;;;16.04;79.73;100963.50;12862410;22;98837;-79
2023/03/25 22:55:39;;;;;;;3.53;1.67;;;;;;;15.99;80.40;100959.34;12863177;22;99005;-80
2023/03/25 23:00:47;;;;;;;3.28;1.67;;;;;;;15.94;80.57;100959.59;12864549;22;99025;-79
2023/03/25 23:05:57;;;;;;;4.05;2.03;;;;;;;15.88;80.98;100952.81;12863866;22;99233;-79
2023/03/25 23:11:09;;;;;;;2.75;1.23;;;;;;;16.00;80.71;100948.66;12864060;22;98867;-80
2023/03/25 23:16:15;;;;;;;3.53;1.30;;;;;;;15.96;81.09;100949.75;12863554;22;99028;-79
2023/03/25 23:21:30;;;;;;;5.72;1.65;;;;;;;16.05;80.78;100941.31;12863634;22;99079;-80
2023/03/25 23:26:48;;;;;;;6.63;1.70;;;;;;;16.06;80.80;100937.75;12864159;22;98889;-80
2023/03/25 23:31:54;;;;;;;4.00;1.95;;;;;;;16.03;81.17;100937.88;12863415;22;99033;-81
2023/03/25 23:37:03;;;;;;;3.80;1.60;;;;;;;16.03;81.19;100937.88;12863189;22;101746;-83
2023/03/25 23:42:09;;;;;;;3.05;1.73;;;;;;;15.98;81.83;100939.06;12861878;22;99052;-80
2023/03/25 23:47:13;;;;;;;1.40;1.13;;;;;;;15.83;82.86;100935.38;12863317;22;98980;-81
2023/03/25 23:52:17;;;;;;;2.30;1.20;;;;;;;15.92;82.87;100932.28;12863208;22;98931;-81
2023/03/25 23:57:26;;;;;;;4.13;1.88;;;;;;;15.93;82.85;100926.88;12862290;22;99024;-82
